Terminal Aerodrome Forecast
Issued by NWS Tallahassee, FL

Home | Current Version | Previous Version | Text Only | Print | Product List | Glossary On
Versions: 1 2 3 4 5 6 7 8 9 10 11 12 13 14
000
FTUS42 KTAE 080524
TAFTLH
TAF
KTLH 080524Z 0806/0906 00000KT P6SM FEW110 BKN200
     FM081900 16006KT P6SM VCTS SCT035CB BKN050
      TEMPO 0820/0824 VRB15G25KT 3SM TSRA BKN035CB
     FM090000 00000KT P6SM SCT080 BKN200=

USA.gov is the U.S. government's official web portal to all federal, state and local government web resources and services.